Time;durP1;ratioP1;P1;durP2;ratioP2;P2;SDS_P1;SDS_P2;PMS_P1;PMS_P2;Temp;Humidity;BMP_temperature;BMP_pressure;BME280_temperature;BME280_humidity;BME280_pressure;Samples;Min_cycle;Max_cycle;Signal;HPM_P1;HPM_P2
2023/10/06 00:02:58;;;;;;;9.73;5.03;;;10.70;98.50;;;;;;5074689;28;20016;-88
2023/10/06 00:05:24;;;;;;;7.93;4.28;;;10.70;98.40;;;;;;5075064;28;20020;-88
2023/10/06 00:07:51;;;;;;;7.87;5.07;;;10.80;98.40;;;;;;5075397;28;20106;-89
2023/10/06 00:10:22;;;;;;;9.90;4.90;;;10.80;98.40;;;;;;5095643;28;20020;-80
2023/10/06 00:12:54;;;;;;;8.52;5.18;;;10.80;98.40;;;;;;5081883;28;20367;-84
2023/10/06 00:15:26;;;;;;;9.13;4.93;;;10.80;98.40;;;;;;5070357;28;20016;-86
2023/10/06 00:18:07;;;;;;;8.52;4.90;;;10.90;98.30;;;;;;5073196;28;20078;-83
2023/10/06 00:20:39;;;;;;;10.77;5.10;;;10.80;98.20;;;;;;5063608;28;20124;-84
2023/10/06 00:23:14;;;;;;;9.15;4.68;;;10.90;98.30;;;;;;5073908;28;20017;-82
2023/10/06 00:25:43;;;;;;;13.27;5.28;;;10.90;98.10;;;;;;5068970;28;20036;-82
2023/10/06 00:28:44;;;;;;;8.18;5.07;;;10.90;98.00;;;;;;5076695;28;20040;-82
2023/10/06 00:31:11;;;;;;;10.52;5.03;;;11.00;97.90;;;;;;5078598;28;20032;-81
2023/10/06 00:33:37;;;;;;;8.20;4.20;;;11.00;97.90;;;;;;5076191;28;20452;-82
2023/10/06 00:36:14;;;;;;;9.75;5.20;;;11.00;97.80;;;;;;5088871;28;20012;-81
2023/10/06 00:38:54;;;;;;;12.68;6.28;;;11.00;97.80;;;;;;5073414;28;20078;-80
2023/10/06 00:41:21;;;;;;;9.32;4.32;;;11.00;97.70;;;;;;5072409;28;20021;-81
2023/10/06 00:43:50;;;;;;;8.50;4.53;;;11.00;97.70;;;;;;5071013;28;20036;-81
2023/10/06 00:46:20;;;;;;;9.07;5.13;;;11.00;97.80;;;;;;5072211;28;20024;-81
2023/10/06 00:48:53;;;;;;;8.38;5.68;;;10.90;97.90;;;;;;5071987;28;20105;-83
2023/10/06 00:51:21;;;;;;;8.40;5.00;;;10.80;98.10;;;;;;5072205;28;20030;-82
2023/10/06 00:53:47;;;;;;;12.00;5.45;;;10.80;98.30;;;;;;5070330;28;20028;-81
2023/10/06 00:56:16;;;;;;;14.00;5.57;;;10.70;98.40;;;;;;5070201;28;20032;-82
2023/10/06 00:58:42;;;;;;;10.15;5.55;;;10.70;98.50;;;;;;5072222;28;20036;-80
2023/10/06 01:01:16;;;;;;;12.60;5.45;;;10.70;98.70;;;;;;5072162;28;20477;-80
2023/10/06 01:04:00;;;;;;;11.25;6.25;;;10.70;98.70;;;;;;5072032;28;20439;-81
2023/10/06 01:06:33;;;;;;;17.30;6.55;;;10.70;98.80;;;;;;5071442;28;20063;-81
2023/10/06 01:09:12;;;;;;;10.02;5.55;;;10.70;98.80;;;;;;5065522;28;20478;-80
2023/10/06 01:11:46;;;;;;;11.38;5.88;;;10.70;98.90;;;;;;5069689;28;20376;-80
2023/10/06 01:14:21;;;;;;;13.02;6.72;;;10.70;98.90;;;;;;5065914;28;20020;-81
2023/10/06 01:16:49;;;;;;;8.63;5.35;;;10.70;98.90;;;;;;5056177;28;20378;-82
2023/10/06 01:19:27;;;;;;;12.68;5.65;;;10.60;99.00;;;;;;5072176;28;20021;-81
2023/10/06 01:21:55;;;;;;;7.30;5.13;;;10.60;99.10;;;;;;5072080;28;20385;-79
2023/10/06 01:24:25;;;;;;;10.35;5.75;;;10.50;99.30;;;;;;5072021;28;20466;-81
2023/10/06 01:26:58;;;;;;;15.05;7.05;;;10.50;99.40;;;;;;5071852;28;20079;-80
2023/10/06 01:29:29;;;;;;;16.92;5.90;;;10.50;99.50;;;;;;5071896;28;20060;-81
2023/10/06 01:31:55;;;;;;;13.23;6.47;;;10.50;99.40;;;;;;5070709;28;20020;-82
2023/10/06 01:34:21;;;;;;;13.83;6.57;;;10.50;99.60;;;;;;5073008;28;20146;-81
2023/10/06 01:36:53;;;;;;;11.52;5.72;;;10.50;99.70;;;;;;5073483;28;20040;-81
2023/10/06 01:39:22;;;;;;;25.40;7.03;;;10.50;99.80;;;;;;5060665;28;20106;-81
2023/10/06 01:41:48;;;;;;;13.40;6.20;;;10.40;99.90;;;;;;5073682;28;20035;-81
2023/10/06 01:44:15;;;;;;;10.70;5.97;;;10.40;99.90;;;;;;5072474;28;20025;-80
2023/10/06 01:46:43;;;;;;;14.25;6.75;;;10.40;99.90;;;;;;5071853;28;20027;-80
2023/10/06 01:49:11;;;;;;;11.63;6.85;;;10.30;99.90;;;;;;5071624;28;20032;-81
2023/10/06 01:51:42;;;;;;;11.18;7.15;;;10.20;99.90;;;;;;5071945;28;20021;-81
2023/10/06 01:54:13;;;;;;;14.90;7.00;;;10.20;99.90;;;;;;5071600;28;20094;-80
2023/10/06 01:56:42;;;;;;;13.43;6.50;;;10.20;99.90;;;;;;5071679;28;20070;-82
2023/10/06 01:59:13;;;;;;;14.48;7.88;;;10.10;99.90;;;;;;5070316;28;20385;-82
2023/10/06 02:01:42;;;;;;;13.32;7.05;;;10.20;99.90;;;;;;5070684;28;20028;-81
2023/10/06 02:04:14;;;;;;;13.35;6.68;;;10.10;99.90;;;;;;5078274;28;20024;-80
2023/10/06 02:06:48;;;;;;;8.95;5.28;;;10.10;99.90;;;;;;5074064;28;20051;-81
2023/10/06 02:09:15;;;;;;;11.43;6.63;;;10.10;99.90;;;;;;5067605;28;20449;-82
2023/10/06 02:11:45;;;;;;;10.23;6.18;;;10.00;99.90;;;;;;5075284;28;20108;-82
2023/10/06 02:14:17;;;;;;;19.30;7.60;;;10.00;99.90;;;;;;5075196;28;20029;-81
2023/10/06 02:16:44;;;;;;;20.13;7.40;;;10.00;99.90;;;;;;5069201;28;20070;-82
2023/10/06 02:19:10;;;;;;;13.05;7.07;;;10.00;99.90;;;;;;5075254;28;20028;-80
2023/10/06 02:21:42;;;;;;;14.10;7.03;;;9.90;99.90;;;;;;5075574;28;20141;-82
2023/10/06 02:24:09;;;;;;;11.45;6.57;;;10.00;99.90;;;;;;5087937;28;20020;-81
2023/10/06 02:26:37;;;;;;;12.45;7.38;;;9.90;99.90;;;;;;5082122;28;20074;-80
2023/10/06 02:29:22;;;;;;;12.70;7.20;;;9.90;99.90;;;;;;5065101;28;20187;-80
2023/10/06 02:31:48;;;;;;;12.15;7.95;;;9.90;99.90;;;;;;5073753;28;20120;-80
2023/10/06 02:34:21;;;;;;;15.68;5.45;;;9.80;99.90;;;;;;5075019;28;20039;-80
2023/10/06 02:36:47;;;;;;;16.60;7.85;;;9.80;99.90;;;;;;5071243;28;20466;-81
2023/10/06 02:39:16;;;;;;;12.70;7.63;;;9.80;99.90;;;;;;5074528;28;20029;-81
2023/10/06 02:41:42;;;;;;;11.93;7.82;;;9.80;99.90;;;;;;5062659;28;20021;-80
2023/10/06 02:44:22;;;;;;;12.23;7.90;;;9.80;99.90;;;;;;5072624;28;20557;-81
2023/10/06 02:46:51;;;;;;;11.25;6.55;;;9.80;99.90;;;;;;5073222;28;20079;-80
2023/10/06 02:49:31;;;;;;;11.80;7.25;;;9.80;99.90;;;;;;5074367;28;20093;-81
2023/10/06 02:52:07;;;;;;;13.65;8.10;;;9.80;99.90;;;;;;5071986;28;20024;-81
2023/10/06 02:54:36;;;;;;;13.93;6.65;;;9.80;99.90;;;;;;5062236;28;20063;-80
2023/10/06 02:57:04;;;;;;;13.05;8.13;;;9.90;99.90;;;;;;5074432;28;20016;-81
2023/10/06 02:59:34;;;;;;;12.63;7.13;;;9.90;99.90;;;;;;5074570;28;20020;-81
2023/10/06 03:02:06;;;;;;;13.43;7.28;;;9.90;99.90;;;;;;5073391;28;20032;-82
2023/10/06 03:04:36;;;;;;;15.40;7.82;;;9.90;99.90;;;;;;5074394;28;20016;-82
2023/10/06 03:07:05;;;;;;;19.73;8.68;;;9.90;99.90;;;;;;5074100;28;20468;-81
2023/10/06 03:09:38;;;;;;;15.70;7.60;;;9.90;99.90;;;;;;5070531;28;20557;-81
2023/10/06 03:12:12;;;;;;;15.48;8.43;;;9.90;99.90;;;;;;5074190;28;20463;-83
2023/10/06 03:14:38;;;;;;;13.35;7.25;;;9.90;99.90;;;;;;5074134;28;20413;-82
2023/10/06 03:17:09;;;;;;;12.85;7.40;;;9.90;99.90;;;;;;5073851;28;20036;-83
2023/10/06 03:19:40;;;;;;;14.68;8.18;;;10.00;99.90;;;;;;5073761;28;20024;-82
2023/10/06 03:22:10;;;;;;;11.90;7.05;;;9.90;99.90;;;;;;5074158;28;20427;-81
2023/10/06 03:24:57;;;;;;;14.30;7.72;;;9.90;99.90;;;;;;5069366;28;20029;-82
2023/10/06 03:27:23;;;;;;;12.50;7.50;;;9.90;99.90;;;;;;5072582;28;20024;-81
2023/10/06 03:29:55;;;;;;;12.50;7.78;;;9.90;99.90;;;;;;5074283;28;20078;-81
2023/10/06 03:32:32;;;;;;;13.50;7.35;;;9.90;99.90;;;;;;5072815;28;20017;-82
2023/10/06 03:38:08;;;;;;;9.63;6.07;;;9.90;99.90;;;;;;5063756;28;20073;-80
2023/10/06 03:40:42;;;;;;;15.55;7.38;;;9.90;99.90;;;;;;5080358;28;20032;-80
2023/10/06 03:43:12;;;;;;;12.63;7.73;;;10.00;99.90;;;;;;5075189;28;20024;-81
2023/10/06 03:45:43;;;;;;;11.32;8.23;;;10.00;99.90;;;;;;5073482;28;20285;-82
2023/10/06 03:48:09;;;;;;;18.40;8.48;;;10.10;99.90;;;;;;5072382;28;20037;-83
2023/10/06 03:50:43;;;;;;;16.13;7.97;;;10.10;99.90;;;;;;5071744;28;20045;-81
2023/10/06 03:53:12;;;;;;;14.10;8.93;;;10.20;99.90;;;;;;5073364;28;20273;-81
2023/10/06 03:55:42;;;;;;;14.57;8.65;;;10.20;99.90;;;;;;5073129;28;20497;-81
2023/10/06 03:58:10;;;;;;;14.80;7.78;;;10.40;99.90;;;;;;5069772;28;20036;-81
2023/10/06 04:00:47;;;;;;;15.55;8.30;;;10.30;99.90;;;;;;5072005;28;20073;-82
2023/10/06 04:03:14;;;;;;;14.10;7.87;;;10.40;99.90;;;;;;5073214;28;20115;-81
2023/10/06 04:05:48;;;;;;;16.10;8.38;;;10.50;99.90;;;;;;5073262;28;20101;-80
2023/10/06 04:08:16;;;;;;;14.25;8.82;;;10.50;99.90;;;;;;5063278;28;20553;-83
2023/10/06 04:10:43;;;;;;;14.75;8.13;;;10.50;99.90;;;;;;5077148;28;20020;-81
2023/10/06 04:13:10;;;;;;;17.50;8.18;;;10.60;99.90;;;;;;5067701;28;20029;-81
2023/10/06 04:15:38;;;;;;;14.23;7.60;;;10.70;99.90;;;;;;5067257;28;20446;-83
2023/10/06 04:18:10;;;;;;;9.50;7.30;;;10.70;99.90;;;;;;5072526;28;20024;-85
2023/10/06 04:20:46;;;;;;;13.45;8.68;;;10.70;99.90;;;;;;5074859;28;20481;-81
2023/10/06 04:23:17;;;;;;;13.13;8.68;;;10.80;99.90;;;;;;5073353;28;20093;-82
2023/10/06 04:25:43;;;;;;;15.05;7.22;;;10.80;99.90;;;;;;5073851;28;20025;-82
2023/10/06 04:28:14;;;;;;;11.77;7.68;;;10.80;99.90;;;;;;5073777;28;20092;-81
2023/10/06 04:30:45;;;;;;;12.02;7.43;;;10.80;99.90;;;;;;5075946;28;20085;-83
2023/10/06 04:33:13;;;;;;;14.43;7.72;;;10.90;99.90;;;;;;5076038;28;20111;-83
2023/10/06 04:35:55;;;;;;;12.40;8.27;;;11.00;99.90;;;;;;5073280;28;20047;-83
2023/10/06 04:38:22;;;;;;;12.73;7.18;;;11.00;99.90;;;;;;5073417;28;20016;-83
2023/10/06 04:40:48;;;;;;;17.48;8.57;;;11.00;99.90;;;;;;5074033;28;20104;-82
2023/10/06 04:43:15;;;;;;;11.73;7.57;;;11.10;99.90;;;;;;5074463;28;20024;-81
2023/10/06 04:45:40;;;;;;;14.07;7.82;;;11.10;99.90;;;;;;5075222;28;20390;-84
2023/10/06 04:48:09;;;;;;;9.20;6.22;;;11.10;99.90;;;;;;5077497;28;20041;-84
2023/10/06 04:50:36;;;;;;;13.93;7.57;;;11.10;99.90;;;;;;5073965;28;20024;-83
2023/10/06 04:53:05;;;;;;;10.23;7.20;;;11.20;99.90;;;;;;5074422;28;20035;-84
2023/10/06 04:55:36;;;;;;;13.85;7.15;;;11.10;99.90;;;;;;5071570;28;20021;-82
2023/10/06 04:58:02;;;;;;;11.57;7.75;;;11.10;99.90;;;;;;5061478;28;20127;-82
2023/10/06 05:00:28;;;;;;;9.45;7.38;;;11.10;99.90;;;;;;5072977;28;20055;-84
2023/10/06 05:02:54;;;;;;;10.20;7.20;;;11.10;99.90;;;;;;5072649;28;20070;-83
2023/10/06 05:05:23;;;;;;;13.18;6.75;;;11.10;99.90;;;;;;5068472;28;20025;-82
2023/10/06 05:07:50;;;;;;;12.48;7.30;;;11.20;99.90;;;;;;5069126;28;20718;-83
2023/10/06 05:10:27;;;;;;;12.35;6.80;;;11.30;99.90;;;;;;5071772;28;20028;-83
2023/10/06 05:12:53;;;;;;;13.33;6.70;;;11.40;99.90;;;;;;5076520;28;20052;-81
2023/10/06 05:15:30;;;;;;;11.55;6.15;;;11.50;99.90;;;;;;5075442;28;20500;-83
2023/10/06 05:18:05;;;;;;;14.02;7.95;;;11.50;99.90;;;;;;5070909;28;20029;-84
2023/10/06 05:20:35;;;;;;;12.00;6.00;;;11.50;99.90;;;;;;5072860;28;20025;-81
2023/10/06 05:23:07;;;;;;;12.65;7.00;;;11.50;99.90;;;;;;5072359;28;20027;-83
2023/10/06 05:25:40;;;;;;;11.27;6.80;;;11.40;99.50;;;;;;5070059;28;20453;-84
2023/10/06 05:28:10;;;;;;;10.25;6.70;;;11.40;99.50;;;;;;5070486;28;20090;-82
2023/10/06 05:30:37;;;;;;;10.43;6.50;;;11.40;99.50;;;;;;5066006;28;20029;-84
2023/10/06 05:33:03;;;;;;;13.68;7.93;;;11.30;99.50;;;;;;5063094;28;20017;-83
2023/10/06 05:35:36;;;;;;;11.90;7.07;;;11.40;99.60;;;;;;5069232;28;20482;-83
2023/10/06 05:38:15;;;;;;;8.60;6.07;;;11.40;99.60;;;;;;5072031;28;20273;-83
2023/10/06 05:40:44;;;;;;;11.15;7.03;;;11.40;99.30;;;;;;5067541;28;20161;-84
2023/10/06 05:43:16;;;;;;;11.68;6.32;;;11.30;99.20;;;;;;5074417;28;20028;-84
2023/10/06 05:45:56;;;;;;;13.65;7.15;;;11.30;99.20;;;;;;5077822;28;20017;-84
2023/10/06 05:48:25;;;;;;;11.98;5.43;;;11.50;99.40;;;;;;5074848;28;20040;-83
2023/10/06 05:50:52;;;;;;;9.80;7.22;;;11.80;99.00;;;;;;5074513;28;20505;-84
2023/10/06 05:53:23;;;;;;;10.13;5.97;;;12.00;98.70;;;;;;5076192;28;20052;-85
2023/10/06 05:55:49;;;;;;;12.02;6.38;;;12.10;98.30;;;;;;5075940;28;20013;-84
2023/10/06 05:58:19;;;;;;;11.80;6.78;;;12.30;97.90;;;;;;5071200;28;20070;-84
2023/10/06 06:00:55;;;;;;;9.02;6.25;;;12.40;97.60;;;;;;5078935;28;20462;-85
2023/10/06 06:03:23;;;;;;;12.10;6.45;;;12.50;97.30;;;;;;5091266;28;20021;-83
2023/10/06 06:05:53;;;;;;;9.63;5.43;;;12.50;96.90;;;;;;5062297;28;20017;-85
2023/10/06 06:08:19;;;;;;;11.27;5.63;;;12.50;96.90;;;;;;5064619;28;20461;-86
2023/10/06 06:10:45;;;;;;;12.00;6.13;;;12.70;96.70;;;;;;5075137;28;20067;-85
2023/10/06 06:13:14;;;;;;;11.48;6.32;;;12.80;96.40;;;;;;5075363;28;20048;-86
2023/10/06 06:15:43;;;;;;;11.82;6.57;;;12.90;96.00;;;;;;5077529;28;20017;-88
2023/10/06 06:18:09;;;;;;;11.70;5.88;;;12.90;96.00;;;;;;5078188;28;20025;-86
2023/10/06 06:20:41;;;;;;;9.85;5.75;;;12.90;95.90;;;;;;5075772;28;20512;-85
2023/10/06 06:23:09;;;;;;;9.98;5.78;;;12.90;95.80;;;;;;5074917;28;20047;-86
2023/10/06 06:25:42;;;;;;;9.20;5.55;;;12.80;95.50;;;;;;5074367;28;20114;-86
2023/10/06 06:28:12;;;;;;;10.38;5.90;;;12.80;96.00;;;;;;5073742;28;20482;-87
2023/10/06 06:30:39;;;;;;;12.68;6.60;;;12.70;95.90;;;;;;5075780;28;20029;-85
2023/10/06 06:33:07;;;;;;;;;;;12.70;95.90;;;;;;5074109;28;20085;-86
2023/10/06 06:35:35;;;;;;;7.82;5.40;;;12.70;96.00;;;;;;5061819;28;20282;-86
2023/10/06 06:38:01;;;;;;;;;;;12.60;95.90;;;;;;5075811;28;20566;-85
2023/10/06 06:40:31;;;;;;;13.43;6.13;;;12.40;95.90;;;;;;5075559;28;19904;-85
2023/10/06 06:43:03;;;;;;;24.85;7.15;;;12.20;96.20;;;;;;5076005;28;20260;-87
2023/10/06 06:45:29;;;;;;;15.60;7.80;;;12.20;96.50;;;;;;5075737;28;20042;-86
2023/10/06 06:47:55;;;;;;;11.90;6.45;;;12.20;96.70;;;;;;5083460;28;20063;-86
2023/10/06 06:50:21;;;;;;;9.52;6.32;;;12.10;96.60;;;;;;5076481;28;20025;-84
2023/10/06 06:52:51;;;;;;;11.25;6.60;;;12.10;96.80;;;;;;5074870;28;20024;-87
2023/10/06 06:55:18;;;;;;;8.55;5.53;;;12.20;96.90;;;;;;5075769;28;20461;-86
2023/10/06 06:57:48;;;;;;;10.68;6.45;;;12.20;96.60;;;;;;5075824;28;20062;-84
2023/10/06 07:00:15;;;;;;;7.63;4.50;;;12.30;96.80;;;;;;5077053;28;20025;-85
2023/10/06 07:02:44;;;;;;;10.82;6.10;;;12.40;96.50;;;;;;5073677;28;20025;-86
2023/10/06 07:05:14;;;;;;;10.85;5.53;;;12.50;96.40;;;;;;5056891;28;20058;-86
2023/10/06 07:07:42;;;;;;;12.10;7.18;;;12.50;96.20;;;;;;5070690;28;20072;-86
2023/10/06 07:10:14;;;;;;;12.20;6.07;;;12.60;96.40;;;;;;5074588;28;20028;-82
2023/10/06 07:12:41;;;;;;;10.82;5.15;;;12.60;96.00;;;;;;5060229;28;20025;-81
2023/10/06 07:15:14;;;;;;;11.23;6.30;;;12.40;95.70;;;;;;5076551;28;20127;-87
2023/10/06 07:17:48;;;;;;;11.48;5.32;;;12.30;96.00;;;;;;5073837;28;20139;-86
2023/10/06 07:20:19;;;;;;;9.75;5.75;;;12.40;96.30;;;;;;5062131;28;20025;-85
2023/10/06 07:22:49;;;;;;;10.02;5.70;;;12.60;96.30;;;;;;5073573;28;20160;-85
2023/10/06 07:25:15;;;;;;;10.27;5.28;;;12.60;95.90;;;;;;5071578;28;20389;-84
2023/10/06 07:27:43;;;;;;;9.20;5.15;;;12.70;95.70;;;;;;5067795;28;20487;-85
2023/10/06 07:30:10;;;;;;;12.48;6.45;;;12.60;95.30;;;;;;5091008;28;20032;-86
2023/10/06 07:32:42;;;;;;;7.22;5.03;;;12.50;95.40;;;;;;5067280;28;20025;-86
2023/10/06 07:35:13;;;;;;;9.68;5.18;;;12.40;95.60;;;;;;5067500;28;20033;-85
2023/10/06 07:37:44;;;;;;;11.68;5.43;;;12.50;95.60;;;;;;5059528;28;20047;-85
2023/10/06 07:40:15;;;;;;;8.27;4.97;;;12.40;95.90;;;;;;5076286;28;20028;-86
2023/10/06 07:43:05;;;;;;;8.10;5.50;;;12.40;95.80;;;;;;5075539;28;20350;-87
2023/10/06 07:45:32;;;;;;;8.98;5.07;;;12.40;95.90;;;;;;5074425;28;20051;-86
2023/10/06 07:47:58;;;;;;;;;;;12.40;96.00;;;;;;5075914;28;20036;-85
2023/10/06 07:50:33;;;;;;;9.55;5.07;;;12.20;96.00;;;;;;5082443;28;20024;-84
2023/10/06 07:53:00;;;;;;;10.63;5.68;;;12.10;96.70;;;;;;5080091;28;20032;-87
2023/10/06 07:55:26;;;;;;;12.02;6.25;;;11.70;97.60;;;;;;5075104;28;20027;-86
2023/10/06 07:57:52;;;;;;;11.93;5.88;;;11.40;98.70;;;;;;5077857;28;20020;-84
2023/10/06 08:00:30;;;;;;;13.95;8.65;;;11.20;99.80;;;;;;5079659;28;20394;-86
2023/10/06 08:02:59;;;;;;;13.02;8.13;;;11.20;99.90;;;;;;5075957;28;20069;-84
2023/10/06 08:05:25;;;;;;;17.60;7.40;;;11.20;99.90;;;;;;5073184;28;20029;-86
2023/10/06 08:07:52;;;;;;;10.07;7.07;;;11.00;99.90;;;;;;5073063;28;20048;-87
2023/10/06 08:10:20;;;;;;;11.13;7.13;;;11.00;99.90;;;;;;5073471;28;20111;-83
2023/10/06 08:12:51;;;;;;;8.48;7.05;;;11.00;99.90;;;;;;5074754;28;20024;-85
2023/10/06 08:15:17;;;;;;;14.05;7.65;;;11.00;99.90;;;;;;5085172;28;20032;-87
2023/10/06 08:17:48;;;;;;;12.90;7.40;;;11.10;99.90;;;;;;5077100;28;20075;-85
2023/10/06 08:20:17;;;;;;;8.35;7.13;;;11.20;99.90;;;;;;5081953;28;20021;-87
2023/10/06 08:22:47;;;;;;;9.52;7.07;;;11.30;99.90;;;;;;5082571;28;20021;-84
2023/10/06 08:25:16;;;;;;;11.80;7.30;;;11.50;99.90;;;;;;5074053;28;20488;-83
2023/10/06 08:27:44;;;;;;;12.02;7.60;;;11.90;99.90;;;;;;5071982;28;20463;-85
2023/10/06 08:30:17;;;;;;;14.30;8.32;;;12.10;99.90;;;;;;5074572;28;20112;-85
2023/10/06 08:32:46;;;;;;;13.13;8.30;;;12.40;99.90;;;;;;5070384;28;20028;-85
2023/10/06 08:35:15;;;;;;;8.65;5.93;;;12.90;99.90;;;;;;5072045;28;20398;-87
2023/10/06 08:37:44;;;;;;;13.23;6.97;;;13.20;99.90;;;;;;5073243;28;20069;-86
2023/10/06 08:40:45;;;;;;;10.10;5.40;;;13.30;99.90;;;;;;5072471;28;20046;-84
2023/10/06 08:43:06;;;;;;;11.13;6.50;;;13.40;99.40;;;;;;5055273;28;20041;-85
2023/10/06 08:45:37;;;;;;;10.80;6.15;;;13.10;99.10;;;;;;5063066;28;20025;-85
2023/10/06 08:48:09;;;;;;;8.30;5.50;;;13.10;98.80;;;;;;5071151;28;20082;-87
2023/10/06 08:50:37;;;;;;;9.93;5.65;;;12.80;98.40;;;;;;5072481;28;20027;-87
2023/10/06 08:53:05;;;;;;;11.23;6.03;;;12.60;98.60;;;;;;5073463;28;20050;-87
2023/10/06 08:55:32;;;;;;;8.02;5.95;;;12.50;99.10;;;;;;5073885;28;20021;-88
2023/10/06 08:57:58;;;;;;;11.75;5.40;;;12.70;99.40;;;;;;5061682;28;20048;-83
2023/10/06 09:00:25;;;;;;;8.93;5.80;;;12.90;99.00;;;;;;5074362;28;20012;-88
2023/10/06 09:02:54;;;;;;;7.38;4.93;;;13.00;98.00;;;;;;5073400;28;20056;-86
2023/10/06 09:05:21;;;;;;;10.60;4.28;;;12.90;97.70;;;;;;5074628;28;20366;-83
2023/10/06 09:08:06;;;;;;;6.23;4.30;;;13.00;97.70;;;;;;5076747;28;20076;-85
2023/10/06 09:10:34;;;;;;;7.40;4.38;;;12.90;97.20;;;;;;5075528;28;20046;-84
2023/10/06 09:13:01;;;;;;;;;;;12.90;97.50;;;;;;5074726;28;20085;-86
2023/10/06 09:15:30;;;;;;;8.73;4.57;;;12.90;97.40;;;;;;5076364;28;19905;-85
2023/10/06 09:17:59;;;;;;;7.10;3.80;;;12.80;97.40;;;;;;5077945;28;20048;-85
2023/10/06 09:20:36;;;;;;;5.60;4.82;;;12.70;97.20;;;;;;5080674;28;20035;-86
2023/10/06 09:23:03;;;;;;;12.98;6.50;;;12.50;97.90;;;;;;5069741;28;20028;-86
2023/10/06 09:25:50;;;;;;;7.47;4.55;;;12.40;98.40;;;;;;5072478;28;20038;-84
2023/10/06 09:28:17;;;;;;;8.25;4.45;;;12.10;98.80;;;;;;5073514;28;20021;-85
2023/10/06 09:30:50;;;;;;;7.57;4.80;;;12.00;99.40;;;;;;5073331;28;20017;-84
2023/10/06 09:33:23;;;;;;;7.35;5.15;;;11.90;99.80;;;;;;5072651;28;20021;-86
2023/10/06 09:36:01;;;;;;;9.20;5.53;;;12.00;99.90;;;;;;5074871;28;20020;-87
2023/10/06 09:38:29;;;;;;;;;;;12.10;99.90;;;;;;5090458;28;20017;-87
2023/10/06 09:40:55;;;;;;;7.70;3.63;;;12.00;99.60;;;;;;5093729;28;19908;-86
2023/10/06 09:43:23;;;;;;;7.50;4.32;;;11.80;99.90;;;;;;5072903;28;20027;-89
2023/10/06 09:45:57;;;;;;;7.20;4.85;;;11.60;99.90;;;;;;5072732;28;20017;-89
2023/10/06 09:48:33;;;;;;;7.30;3.95;;;11.50;99.90;;;;;;5071964;28;20036;-88
2023/10/06 09:51:03;;;;;;;4.70;3.53;;;11.40;99.90;;;;;;5073525;28;20036;-89
2023/10/06 09:53:30;;;;;;;6.03;3.90;;;11.30;99.90;;;;;;5073998;28;20036;-87
2023/10/06 09:55:57;;;;;;;15.32;5.03;;;11.40;99.90;;;;;;5081213;28;20017;-89
2023/10/06 09:58:23;;;;;;;6.47;4.23;;;11.50;99.90;;;;;;5087761;28;20048;-90
2023/10/06 10:00:49;;;;;;;8.10;4.83;;;11.70;99.90;;;;;;5063754;28;20055;-82
2023/10/06 10:03:17;;;;;;;7.63;3.95;;;11.90;99.90;;;;;;5055745;28;20521;-83
2023/10/06 10:05:45;;;;;;;6.13;3.72;;;12.00;99.90;;;;;;5067927;28;20016;-88
2023/10/06 10:08:13;;;;;;;5.60;3.72;;;12.20;99.90;;;;;;5070424;28;20048;-86
2023/10/06 10:10:43;;;;;;;7.25;3.83;;;12.20;99.90;;;;;;5073701;28;20031;-85
2023/10/06 10:13:34;;;;;;;6.85;3.90;;;12.20;99.90;;;;;;5072764;28;20168;-87
2023/10/06 10:16:12;;;;;;;9.45;4.22;;;12.30;99.90;;;;;;5085593;28;20037;-85
2023/10/06 10:18:49;;;;;;;8.15;4.60;;;12.40;99.90;;;;;;5078399;28;20384;-87
2023/10/06 10:21:15;;;;;;;8.02;4.28;;;12.60;99.90;;;;;;5071311;28;20157;-86
2023/10/06 10:23:44;;;;;;;7.78;4.28;;;12.80;99.90;;;;;;5071585;28;20031;-87
2023/10/06 10:26:22;;;;;;;5.13;3.58;;;13.20;99.90;;;;;;5071828;28;20433;-85
2023/10/06 10:29:18;;;;;;;5.45;3.10;;;13.60;99.90;;;;;;5073741;28;20033;-86
2023/10/06 10:31:50;;;;;;;4.88;2.50;;;13.90;98.60;;;;;;5060525;28;20374;-85
2023/10/06 10:34:20;;;;;;;5.15;3.33;;;13.70;97.70;;;;;;5074208;28;20065;-85
2023/10/06 10:36:48;;;;;;;5.78;2.97;;;13.50;97.10;;;;;;5074916;28;20392;-86
2023/10/06 10:39:18;;;;;;;4.25;3.20;;;13.50;96.70;;;;;;5069867;28;20170;-85
2023/10/06 10:41:45;;;;;;;3.92;2.42;;;13.70;96.30;;;;;;5070961;28;20060;-85
2023/10/06 10:44:12;;;;;;;5.50;3.05;;;13.90;95.60;;;;;;5080402;28;20016;-86
2023/10/06 10:46:56;;;;;;;5.07;2.60;;;13.90;95.20;;;;;;5077188;28;20382;-85
2023/10/06 10:49:22;;;;;;;4.97;2.90;;;14.00;95.00;;;;;;5074037;28;20493;-86
2023/10/06 10:52:05;;;;;;;5.22;3.17;;;14.10;94.60;;;;;;5071747;28;20028;-85
2023/10/06 10:54:35;;;;;;;5.75;2.55;;;14.00;94.30;;;;;;5075619;28;20394;-85
2023/10/06 10:57:14;;;;;;;6.70;4.03;;;13.70;94.40;;;;;;5076756;28;20028;-85
2023/10/06 11:02:48;;;;;;;3.88;2.47;;;13.00;96.00;;;;;;5076647;28;20021;-87
2023/10/06 11:05:19;;;;;;;6.03;2.95;;;12.60;96.60;;;;;;5076687;28;20737;-87
2023/10/06 11:07:58;;;;;;;4.38;2.83;;;12.30;97.60;;;;;;5075513;28;20051;-86
2023/10/06 11:10:23;;;;;;;7.20;3.58;;;12.00;98.40;;;;;;5086590;28;20028;-87
2023/10/06 11:13:19;;;;;;;6.85;2.70;;;12.00;98.90;;;;;;5079720;28;20043;-90
2023/10/06 11:15:46;;;;;;;7.28;3.97;;;12.10;99.10;;;;;;5078541;28;20028;-92
2023/10/06 11:18:13;;;;;;;5.47;3.92;;;11.90;99.40;;;;;;5079068;28;20020;-92
2023/10/06 11:20:42;;;;;;;6.78;4.18;;;11.90;99.80;;;;;;5079741;28;20033;-92
2023/10/06 11:23:08;;;;;;;5.60;4.30;;;12.00;99.90;;;;;;5076553;28;20016;-91
2023/10/06 11:25:38;;;;;;;6.45;4.78;;;12.10;99.90;;;;;;5080117;28;20025;-89
2023/10/06 11:28:12;;;;;;;6.00;3.40;;;12.10;99.90;;;;;;5080786;28;20039;-86
2023/10/06 11:30:42;;;;;;;13.18;6.13;;;12.10;99.90;;;;;;5093288;28;20021;-90
2023/10/06 11:33:10;;;;;;;11.50;5.53;;;12.20;99.90;;;;;;5089094;28;20029;-88
2023/10/06 11:35:40;;;;;;;8.68;4.47;;;12.20;99.90;;;;;;5081191;28;20405;-89
2023/10/06 11:38:10;;;;;;;7.38;4.30;;;12.30;99.90;;;;;;5079708;28;20115;-85
2023/10/06 11:40:37;;;;;;;7.93;4.75;;;12.40;99.90;;;;;;5061319;28;20024;-89
2023/10/06 11:43:13;;;;;;;7.15;3.85;;;12.40;99.90;;;;;;5074937;28;20393;-89
2023/10/06 11:45:41;;;;;;;6.32;4.47;;;12.40;99.90;;;;;;5073075;28;20056;-88
2023/10/06 11:48:33;;;;;;;12.50;5.65;;;12.30;99.90;;;;;;5074507;28;20032;-88
2023/10/06 11:51:06;;;;;;;7.07;3.75;;;12.20;99.70;;;;;;5074776;28;20072;-88
2023/10/06 11:53:36;;;;;;;4.10;3.03;;;11.90;99.90;;;;;;5070980;28;20059;-86
2023/10/06 11:56:10;;;;;;;5.68;2.20;;;11.70;99.90;;;;;;5076600;28;20028;-86
2023/10/06 11:58:37;;;;;;;5.75;2.75;;;11.50;99.90;;;;;;5073673;28;20020;-87
2023/10/06 12:01:04;;;;;;;3.65;1.98;;;11.40;99.90;;;;;;5071576;28;20021;-87
2023/10/06 12:03:42;;;;;;;2.60;1.92;;;11.30;99.90;;;;;;5074019;28;20117;-86
2023/10/06 12:06:12;;;;;;;4.50;2.33;;;11.20;99.90;;;;;;5073424;28;20060;-86
2023/10/06 12:08:52;;;;;;;4.65;1.90;;;11.10;99.90;;;;;;5075216;28;20159;-85
2023/10/06 12:11:19;;;;;;;4.93;1.63;;;11.00;99.90;;;;;;5065152;28;20099;-88
2023/10/06 12:13:45;;;;;;;4.72;2.05;;;11.00;99.90;;;;;;5057798;28;20036;-86
2023/10/06 12:16:15;;;;;;;2.25;1.27;;;10.90;99.90;;;;;;5069564;28;20017;-90
2023/10/06 12:18:46;;;;;;;3.53;1.70;;;10.80;99.90;;;;;;5074242;28;20020;-89
2023/10/06 12:21:14;;;;;;;4.22;1.83;;;10.70;99.90;;;;;;5080947;28;20016;-90
2023/10/06 12:23:52;;;;;;;2.97;1.90;;;10.60;99.90;;;;;;5080460;28;20048;-90
2023/10/06 12:26:19;;;;;;;3.58;1.63;;;10.60;99.90;;;;;;5084725;28;20024;-91
2023/10/06 12:28:48;;;;;;;3.00;1.70;;;10.60;99.90;;;;;;5092461;28;20059;-90
2023/10/06 12:31:14;;;;;;;2.92;1.50;;;10.60;99.90;;;;;;5073296;28;20052;-89
2023/10/06 12:33:55;;;;;;;3.78;1.67;;;10.40;99.90;;;;;;5087296;28;20543;-94
2023/10/06 12:36:21;;;;;;;2.78;1.65;;;10.30;99.90;;;;;;5073737;28;20078;-88
2023/10/06 12:38:48;;;;;;;2.67;1.45;;;10.20;99.90;;;;;;5073239;28;20031;-90
2023/10/06 12:41:14;;;;;;;2.28;1.30;;;10.20;99.90;;;;;;5076800;28;20071;-90
2023/10/06 12:43:39;;;;;;;1.65;1.13;;;10.20;99.90;;;;;;5073057;28;20497;-89
2023/10/06 12:46:08;;;;;;;1.50;0.80;;;10.20;99.90;;;;;;5077931;28;20028;-88
2023/10/06 12:48:38;;;;;;;1.75;1.17;;;10.10;99.90;;;;;;5076806;28;20040;-92
2023/10/06 12:51:11;;;;;;;2.05;1.13;;;10.00;99.90;;;;;;5076106;28;20021;-91
2023/10/06 12:53:40;;;;;;;2.50;0.88;;;10.00;99.90;;;;;;5079521;28;20077;-94
2023/10/06 12:56:09;;;;;;;2.97;1.10;;;9.90;99.90;;;;;;5076960;28;20066;-94
2023/10/06 12:58:35;;;;;;;1.67;0.82;;;9.90;99.90;;;;;;5072568;28;20253;-90
2023/10/06 13:01:01;;;;;;;2.45;1.30;;;9.90;99.90;;;;;;5073959;28;20385;-93
2023/10/06 13:03:27;;;;;;;2.10;1.35;;;9.80;99.90;;;;;;5076154;28;20493;-90
2023/10/06 13:05:53;;;;;;;3.42;1.30;;;9.80;99.90;;;;;;5081525;28;20023;-85
2023/10/06 13:08:24;;;;;;;2.78;1.23;;;9.90;99.90;;;;;;5073918;28;20131;-86